Time;durP1;ratioP1;P1;durP2;ratioP2;P2;SDS_P1;SDS_P2;PMS_P1;PMS_P2;Temp;Humidity;BMP_temperature;BMP_pressure;BME280_temperature;BME280_humidity;BME280_pressure;Samples;Min_cycle;Max_cycle;Signal;HPM_P1;HPM_P2
2023/04/26 00:02:18;;;;;;;8.65;6.05;;;11.20;81.90;;;;;;5053071;28;20025;-75
2023/04/26 00:04:46;;;;;;;7.45;6.03;;;11.20;81.70;;;;;;5053010;28;20058;-75
2023/04/26 00:07:12;;;;;;;7.50;6.13;;;11.20;81.70;;;;;;5053286;28;20530;-75
2023/04/26 00:09:40;;;;;;;7.95;5.93;;;11.20;81.60;;;;;;5053336;28;20397;-75
2023/04/26 00:12:07;;;;;;;9.75;6.07;;;11.20;81.60;;;;;;5052968;28;20080;-75
2023/04/26 00:14:33;;;;;;;10.55;6.20;;;11.10;81.40;;;;;;5051746;28;20132;-75
2023/04/26 00:16:59;;;;;;;7.78;5.90;;;11.10;81.40;;;;;;5053305;28;20455;-76
2023/04/26 00:19:25;;;;;;;11.98;5.93;;;11.20;81.30;;;;;;5069628;28;20032;-75
2023/04/26 00:21:50;;;;;;;7.07;5.60;;;11.10;81.20;;;;;;5076914;28;20024;-75
2023/04/26 00:24:16;;;;;;;8.07;6.00;;;11.20;81.30;;;;;;5076559;28;20040;-75
2023/04/26 00:26:42;;;;;;;8.25;5.85;;;11.20;81.50;;;;;;5076927;28;20032;-75
2023/04/26 00:29:08;;;;;;;8.70;6.65;;;11.10;81.60;;;;;;5076746;28;20056;-75
2023/04/26 00:31:34;;;;;;;8.50;6.85;;;11.20;81.70;;;;;;5076664;28;20017;-75
2023/04/26 00:34:00;;;;;;;8.23;6.80;;;11.20;81.40;;;;;;5073645;28;20017;-75
2023/04/26 00:36:26;;;;;;;8.55;6.68;;;11.10;80.90;;;;;;5075319;28;20116;-76
2023/04/26 00:38:52;;;;;;;7.68;6.28;;;11.20;80.70;;;;;;5076584;28;20052;-75
2023/04/26 00:41:18;;;;;;;9.02;6.90;;;11.20;80.70;;;;;;5076486;28;20061;-75
2023/04/26 00:43:44;;;;;;;9.95;7.13;;;11.20;80.70;;;;;;5074941;28;20473;-75
2023/04/26 00:46:11;;;;;;;8.38;6.90;;;11.20;80.70;;;;;;5076370;28;20036;-75
2023/04/26 00:48:37;;;;;;;8.52;6.60;;;11.20;80.80;;;;;;5075038;28;20047;-75
2023/04/26 00:51:04;;;;;;;14.13;7.20;;;11.30;81.00;;;;;;5075062;28;20099;-75
2023/04/26 00:53:33;;;;;;;9.25;7.50;;;11.30;81.00;;;;;;5074980;28;20115;-75
2023/04/26 00:55:59;;;;;;;8.70;6.95;;;11.30;81.00;;;;;;5076195;28;20385;-75
2023/04/26 00:58:25;;;;;;;8.93;7.13;;;11.40;81.00;;;;;;5075159;28;20024;-75
2023/04/26 01:00:51;;;;;;;9.88;6.50;;;11.40;81.10;;;;;;5076026;28;20508;-75
2023/04/26 01:03:17;;;;;;;8.77;7.45;;;11.40;81.20;;;;;;5071706;28;20474;-75
2023/04/26 01:05:44;;;;;;;9.73;7.18;;;11.50;81.10;;;;;;5055924;28;20462;-76
2023/04/26 01:08:10;;;;;;;9.40;7.40;;;11.50;81.00;;;;;;5055915;28;20382;-75
2023/04/26 01:10:36;;;;;;;8.38;7.00;;;11.50;80.70;;;;;;5056048;28;20027;-75
2023/04/26 01:13:02;;;;;;;8.63;6.63;;;11.50;80.40;;;;;;5056134;28;20464;-75
2023/04/26 01:15:29;;;;;;;8.27;6.10;;;11.50;80.20;;;;;;5055799;28;20099;-75
2023/04/26 01:17:56;;;;;;;10.00;7.38;;;11.50;80.20;;;;;;5067554;28;20021;-76
2023/04/26 01:20:23;;;;;;;7.80;6.32;;;11.50;80.10;;;;;;5074973;28;20020;-75
2023/04/26 01:22:49;;;;;;;8.20;6.65;;;11.50;80.00;;;;;;5075676;28;20033;-76
2023/04/26 01:25:16;;;;;;;7.65;6.40;;;11.60;80.00;;;;;;5074320;28;20033;-75
2023/04/26 01:27:42;;;;;;;7.55;5.97;;;11.60;80.10;;;;;;5074331;28;20085;-75
2023/04/26 01:30:09;;;;;;;7.50;5.70;;;11.60;80.20;;;;;;5075082;28;20024;-75
2023/04/26 01:32:35;;;;;;;7.65;6.38;;;11.60;80.00;;;;;;5075579;28;20104;-75
2023/04/26 01:35:02;;;;;;;8.98;7.10;;;11.60;80.00;;;;;;5075408;28;20521;-75
2023/04/26 01:37:28;;;;;;;8.45;6.82;;;11.60;79.80;;;;;;5075409;28;20060;-75
2023/04/26 01:39:54;;;;;;;8.32;7.28;;;11.60;79.70;;;;;;5074087;28;20056;-76
2023/04/26 01:42:21;;;;;;;8.13;6.85;;;11.70;79.60;;;;;;5075340;28;20526;-75
2023/04/26 01:44:47;;;;;;;8.48;7.13;;;11.70;79.30;;;;;;5075236;28;20394;-75
2023/04/26 01:47:13;;;;;;;9.18;6.70;;;11.70;79.10;;;;;;5075215;28;20431;-75
2023/04/26 01:49:38;;;;;;;9.10;6.60;;;11.70;79.10;;;;;;5075202;28;20016;-75
2023/04/26 01:52:04;;;;;;;6.75;5.60;;;11.70;79.00;;;;;;5075173;28;20382;-75
2023/04/26 01:54:30;;;;;;;8.65;6.43;;;11.70;78.90;;;;;;5075091;28;20474;-75
2023/04/26 01:56:56;;;;;;;8.00;6.38;;;11.80;78.90;;;;;;5075031;28;20389;-75
2023/04/26 01:59:21;;;;;;;6.78;5.63;;;11.70;78.60;;;;;;5075038;28;20474;-75
2023/04/26 02:01:47;;;;;;;7.78;5.97;;;11.70;78.50;;;;;;5074874;28;20428;-75
2023/04/26 02:04:13;;;;;;;8.25;7.13;;;11.70;78.20;;;;;;5063925;28;20117;-75
2023/04/26 02:06:40;;;;;;;8.50;6.13;;;11.70;77.80;;;;;;5054768;28;20071;-75
2023/04/26 02:09:08;;;;;;;10.00;5.55;;;11.80;77.60;;;;;;5054970;28;20021;-75
2023/04/26 02:11:34;;;;;;;9.45;6.22;;;11.80;77.70;;;;;;5053513;28;20442;-76
2023/04/26 02:14:01;;;;;;;7.78;5.93;;;11.80;77.60;;;;;;5054680;28;20024;-76
2023/04/26 02:16:27;;;;;;;11.35;6.63;;;11.80;77.50;;;;;;5066097;28;20107;-76
2023/04/26 02:18:53;;;;;;;6.93;5.72;;;11.80;77.20;;;;;;5074617;28;20382;-75
2023/04/26 02:21:20;;;;;;;8.75;5.78;;;11.80;77.20;;;;;;5074578;28;20016;-76
2023/04/26 02:23:46;;;;;;;6.25;5.18;;;11.80;77.20;;;;;;5074346;28;20041;-75
2023/04/26 02:26:12;;;;;;;7.78;5.60;;;11.80;77.30;;;;;;5074413;28;20038;-75
2023/04/26 02:28:38;;;;;;;7.78;6.03;;;11.80;77.20;;;;;;5074600;28;20484;-75
2023/04/26 02:31:04;;;;;;;8.35;6.20;;;11.80;77.00;;;;;;5074360;28;20024;-75
2023/04/26 02:33:30;;;;;;;7.28;5.32;;;11.70;76.60;;;;;;5069199;28;20091;-75
2023/04/26 02:35:56;;;;;;;8.02;5.57;;;11.70;76.60;;;;;;5054258;28;20098;-76
2023/04/26 02:38:22;;;;;;;9.10;5.93;;;11.80;76.80;;;;;;5052927;28;20033;-75
2023/04/26 02:40:48;;;;;;;7.80;5.88;;;11.80;76.80;;;;;;5053253;28;20021;-75
2023/04/26 02:43:14;;;;;;;7.45;5.72;;;11.80;76.70;;;;;;5054333;28;20047;-75
2023/04/26 02:45:42;;;;;;;8.07;5.70;;;11.80;76.80;;;;;;5054103;28;20032;-75
2023/04/26 02:48:08;;;;;;;7.80;5.72;;;11.80;76.60;;;;;;5054095;28;20096;-75
2023/04/26 02:50:35;;;;;;;8.20;5.72;;;11.80;76.40;;;;;;5054188;28;20453;-75
2023/04/26 02:53:02;;;;;;;7.03;5.45;;;11.80;76.30;;;;;;5052777;28;20021;-75
2023/04/26 02:55:28;;;;;;;7.13;5.20;;;11.80;76.00;;;;;;5053938;28;20032;-75
2023/04/26 02:57:54;;;;;;;6.97;5.05;;;11.80;75.70;;;;;;5053913;28;20096;-75
2023/04/26 03:00:21;;;;;;;6.90;4.95;;;11.70;75.30;;;;;;5052516;28;20059;-75
2023/04/26 03:02:47;;;;;;;7.40;5.30;;;11.70;75.10;;;;;;5052509;28;20079;-76
2023/04/26 03:05:12;;;;;;;8.02;5.68;;;11.60;74.80;;;;;;5053508;28;20025;-76
2023/04/26 03:07:38;;;;;;;7.68;5.32;;;11.50;74.70;;;;;;5054016;28;20467;-75
2023/04/26 03:10:04;;;;;;;5.95;4.80;;;11.50;74.70;;;;;;5053665;28;20032;-75
2023/04/26 03:12:30;;;;;;;6.88;4.88;;;11.40;74.60;;;;;;5052378;28;20100;-75
2023/04/26 03:14:56;;;;;;;6.88;5.05;;;11.30;74.50;;;;;;5062676;28;20107;-75
2023/04/26 03:17:22;;;;;;;7.45;5.07;;;11.30;74.60;;;;;;5073530;28;20096;-75
2023/04/26 03:19:48;;;;;;;6.70;5.00;;;11.20;74.50;;;;;;5073362;28;20020;-75
2023/04/26 03:22:15;;;;;;;6.82;4.80;;;11.20;74.70;;;;;;5072784;28;20033;-75
2023/04/26 03:24:44;;;;;;;6.30;5.00;;;11.20;74.70;;;;;;5071983;28;20064;-75
2023/04/26 03:27:10;;;;;;;7.90;5.68;;;11.10;74.50;;;;;;5073403;28;20013;-75
2023/04/26 03:29:36;;;;;;;7.50;5.25;;;11.10;74.60;;;;;;5072066;28;20027;-75
2023/04/26 03:32:02;;;;;;;7.18;5.07;;;11.00;74.50;;;;;;5073411;28;20024;-75
2023/04/26 03:34:28;;;;;;;5.15;4.57;;;11.00;74.60;;;;;;5061198;28;20052;-75
2023/04/26 03:36:54;;;;;;;6.03;4.55;;;11.00;74.80;;;;;;5053436;28;20102;-76
2023/04/26 03:39:20;;;;;;;6.03;4.70;;;10.90;75.00;;;;;;5053226;28;20112;-75
2023/04/26 03:41:45;;;;;;;5.13;4.35;;;10.90;75.10;;;;;;5053100;28;20108;-75
2023/04/26 03:44:11;;;;;;;6.78;5.28;;;10.90;75.40;;;;;;5052979;28;20029;-75
2023/04/26 03:46:37;;;;;;;9.55;5.03;;;10.90;75.50;;;;;;5053358;28;20017;-75
2023/04/26 03:49:03;;;;;;;7.35;4.95;;;10.90;75.60;;;;;;5051721;28;20112;-75
2023/04/26 03:51:30;;;;;;;5.57;4.85;;;10.90;75.70;;;;;;5053110;28;20037;-75
2023/04/26 03:53:57;;;;;;;7.15;5.43;;;10.90;75.70;;;;;;5056753;28;20025;-76
2023/04/26 03:56:22;;;;;;;8.30;5.22;;;10.90;75.80;;;;;;5057089;28;20172;-75
2023/04/26 03:58:48;;;;;;;7.40;4.95;;;11.00;75.90;;;;;;5056908;28;20080;-76
2023/04/26 04:01:14;;;;;;;6.05;5.13;;;11.00;76.10;;;;;;5056941;28;20025;-76
2023/04/26 04:03:40;;;;;;;6.88;5.15;;;11.00;76.20;;;;;;5056699;28;20029;-75
2023/04/26 04:06:06;;;;;;;5.88;5.13;;;11.10;76.30;;;;;;5056732;28;20113;-75
2023/04/26 04:08:32;;;;;;;8.52;4.80;;;11.10;76.30;;;;;;5056866;28;20036;-75
2023/04/26 04:11:00;;;;;;;6.20;4.38;;;11.10;76.40;;;;;;5056907;28;20466;-75
2023/04/26 04:13:26;;;;;;;6.10;4.85;;;11.20;76.50;;;;;;5066304;28;20044;-76
2023/04/26 04:15:52;;;;;;;6.93;4.72;;;11.20;76.40;;;;;;5076836;28;20024;-75
2023/04/26 04:18:18;;;;;;;6.63;4.97;;;11.30;76.50;;;;;;5075518;28;20033;-75
2023/04/26 04:20:44;;;;;;;5.20;4.40;;;11.30;76.40;;;;;;5075044;28;20024;-75
2023/04/26 04:23:10;;;;;;;5.80;4.25;;;11.40;76.30;;;;;;5076460;28;20064;-75
2023/04/26 04:25:36;;;;;;;6.20;4.60;;;11.40;76.00;;;;;;5076530;28;20075;-75
2023/04/26 04:28:02;;;;;;;8.93;5.07;;;11.40;75.70;;;;;;5076751;28;20048;-76
2023/04/26 04:30:29;;;;;;;6.20;4.82;;;11.40;75.40;;;;;;5066038;28;20064;-75
2023/04/26 04:32:58;;;;;;;13.25;5.65;;;11.40;75.20;;;;;;5056446;28;20017;-75
2023/04/26 04:35:27;;;;;;;10.25;5.20;;;11.30;75.10;;;;;;5056445;28;20020;-75
2023/04/26 04:37:57;;;;;;;5.88;4.60;;;11.30;75.10;;;;;;5056186;28;20025;-75
2023/04/26 04:40:23;;;;;;;6.13;4.93;;;11.30;75.10;;;;;;5055005;28;20118;-75
2023/04/26 04:42:49;;;;;;;6.28;4.53;;;11.30;75.10;;;;;;5056232;28;20114;-75
2023/04/26 04:45:16;;;;;;;5.35;4.40;;;11.30;75.20;;;;;;5056157;28;20470;-76
2023/04/26 04:47:44;;;;;;;6.57;4.57;;;11.30;75.40;;;;;;5054507;28;20025;-76
2023/04/26 04:50:09;;;;;;;7.47;5.55;;;11.40;75.50;;;;;;5055997;28;20589;-75
2023/04/26 04:52:36;;;;;;;9.98;5.70;;;11.40;76.30;;;;;;5055938;28;20100;-75
2023/04/26 04:55:03;;;;;;;6.35;4.85;;;11.40;75.70;;;;;;5071041;28;20039;-75
2023/04/26 04:57:31;;;;;;;5.80;4.82;;;11.40;75.30;;;;;;5070975;28;20025;-75
2023/04/26 04:59:57;;;;;;;7.13;4.78;;;11.50;75.50;;;;;;5055804;28;20025;-76
2023/04/26 05:02:24;;;;;;;6.18;5.13;;;11.50;75.30;;;;;;5055784;28;20027;-76
2023/04/26 05:04:49;;;;;;;8.27;4.85;;;11.50;75.10;;;;;;5082062;28;20107;-74
2023/04/26 05:07:17;;;;;;;6.32;4.95;;;11.60;74.90;;;;;;5075560;28;20418;-75
2023/04/26 05:09:43;;;;;;;5.97;5.22;;;11.60;75.10;;;;;;5074254;28;20424;-75
2023/04/26 05:12:11;;;;;;;5.45;4.40;;;11.70;75.50;;;;;;5075593;28;20028;-75
2023/04/26 05:14:37;;;;;;;7.40;4.80;;;11.70;75.40;;;;;;5060065;28;20032;-75
2023/04/26 05:17:03;;;;;;;10.75;5.10;;;11.80;75.50;;;;;;5054274;28;20047;-75
2023/04/26 05:19:29;;;;;;;7.68;4.72;;;11.90;75.60;;;;;;5058820;28;20074;-75
2023/04/26 05:21:56;;;;;;;6.15;4.63;;;12.00;75.20;;;;;;5073775;28;20390;-74
2023/04/26 05:24:21;;;;;;;7.63;5.25;;;12.00;74.30;;;;;;5068208;28;20041;-75
2023/04/26 05:26:47;;;;;;;7.53;4.97;;;12.00;73.60;;;;;;5075275;28;20017;-74
2023/04/26 05:29:13;;;;;;;13.48;5.25;;;12.10;73.90;;;;;;5072459;28;20356;-74
2023/04/26 05:31:39;;;;;;;10.48;5.50;;;12.10;73.30;;;;;;5060496;28;20479;-75
2023/04/26 05:34:14;;;;;;;6.63;5.22;;;12.10;72.70;;;;;;5055477;28;20025;-74
2023/04/26 05:36:40;;;;;;;11.30;5.50;;;12.10;73.10;;;;;;5054602;28;20027;-75
2023/04/26 05:39:07;;;;;;;12.15;5.43;;;12.20;73.50;;;;;;5054872;28;20028;-74
2023/04/26 05:41:33;;;;;;;7.88;5.78;;;12.30;73.40;;;;;;5054687;28;20017;-75
2023/04/26 05:43:58;;;;;;;7.85;5.22;;;12.40;73.50;;;;;;5054376;28;20021;-74
2023/04/26 05:46:24;;;;;;;7.82;5.78;;;12.40;72.80;;;;;;5054716;28;20033;-74
2023/04/26 05:48:50;;;;;;;8.07;6.13;;;12.40;72.00;;;;;;5054688;28;20029;-74
2023/04/26 05:51:16;;;;;;;6.97;5.18;;;12.50;72.30;;;;;;5054939;28;20563;-74
2023/04/26 05:53:42;;;;;;;8.35;5.70;;;12.60;72.90;;;;;;5053708;28;20057;-74
2023/04/26 05:56:08;;;;;;;8.18;5.25;;;12.60;72.70;;;;;;5054744;28;20482;-74
2023/04/26 05:58:33;;;;;;;7.80;5.57;;;12.70;72.40;;;;;;5056127;28;20032;-74
2023/04/26 06:00:59;;;;;;;6.05;4.57;;;12.70;71.70;;;;;;5053525;28;20100;-75
2023/04/26 06:03:25;;;;;;;7.68;5.50;;;12.80;71.90;;;;;;5053400;28;20031;-74
2023/04/26 06:05:51;;;;;;;7.45;5.20;;;12.80;70.20;;;;;;5052975;28;20090;-74
2023/04/26 06:08:17;;;;;;;6.50;4.70;;;12.80;70.20;;;;;;5053223;28;20025;-76
2023/04/26 06:10:43;;;;;;;5.47;4.93;;;12.90;70.30;;;;;;5070155;28;20021;-75
2023/04/26 06:13:08;;;;;;;5.93;4.28;;;12.90;70.40;;;;;;5074523;28;20027;-75
2023/04/26 06:15:34;;;;;;;9.82;5.10;;;13.00;70.90;;;;;;5073879;28;20186;-75
2023/04/26 06:18:00;;;;;;;7.82;4.78;;;13.00;69.90;;;;;;5058860;28;20448;-75
2023/04/26 06:20:26;;;;;;;7.82;5.43;;;13.10;69.90;;;;;;5072482;28;20028;-75
2023/04/26 06:22:52;;;;;;;8.57;5.35;;;13.10;69.80;;;;;;5061668;28;20033;-75
2023/04/26 06:25:18;;;;;;;8.63;5.28;;;13.20;70.00;;;;;;5073129;28;20029;-75
2023/04/26 06:27:44;;;;;;;7.47;5.22;;;13.20;69.70;;;;;;5073389;28;20031;-75
2023/04/26 06:30:10;;;;;;;12.02;5.55;;;13.30;69.30;;;;;;5074230;28;20020;-75
2023/04/26 06:32:38;;;;;;;7.75;4.90;;;13.30;69.20;;;;;;5073424;28;20024;-75
2023/04/26 06:35:04;;;;;;;10.25;5.50;;;13.40;68.90;;;;;;5074139;28;20020;-75
2023/04/26 06:37:29;;;;;;;7.35;5.65;;;13.40;68.30;;;;;;5074121;28;20478;-75
2023/04/26 06:39:55;;;;;;;7.47;5.18;;;13.50;68.50;;;;;;5074255;28;20035;-75
2023/04/26 06:42:21;;;;;;;7.88;5.25;;;13.60;68.60;;;;;;5074323;28;20024;-75
2023/04/26 06:44:47;;;;;;;12.65;5.78;;;13.70;68.00;;;;;;5074013;28;20024;-75
2023/04/26 06:47:13;;;;;;;8.80;6.03;;;13.70;67.80;;;;;;5072409;28;20390;-75
2023/04/26 06:49:39;;;;;;;10.05;6.32;;;13.80;67.20;;;;;;5073953;28;20020;-75
2023/04/26 06:52:08;;;;;;;6.22;5.13;;;13.80;67.20;;;;;;5064652;28;20017;-75
2023/04/26 06:54:34;;;;;;;11.38;6.22;;;13.90;66.90;;;;;;5063390;28;20039;-75
2023/04/26 06:57:00;;;;;;;7.68;5.22;;;13.90;66.30;;;;;;5074142;28;20032;-75
2023/04/26 06:59:26;;;;;;;7.43;5.45;;;14.00;66.90;;;;;;5073968;28;20020;-75
2023/04/26 07:01:53;;;;;;;8.90;5.45;;;14.10;67.20;;;;;;5072443;28;20034;-75
2023/04/26 07:04:19;;;;;;;8.77;5.50;;;14.20;67.30;;;;;;5072722;28;20060;-75
2023/04/26 07:06:45;;;;;;;6.68;5.40;;;14.20;66.40;;;;;;5072259;28;20019;-75
2023/04/26 07:09:12;;;;;;;10.23;5.70;;;14.30;66.10;;;;;;5073227;28;20100;-75
2023/04/26 07:11:37;;;;;;;6.35;5.07;;;14.40;65.90;;;;;;5072368;28;20027;-75
2023/04/26 07:14:04;;;;;;;7.72;5.50;;;14.50;66.20;;;;;;5073755;28;20020;-75
2023/04/26 07:16:30;;;;;;;8.40;5.70;;;14.50;65.90;;;;;;5062364;28;20044;-75
2023/04/26 07:18:59;;;;;;;6.57;5.28;;;14.60;64.50;;;;;;5053450;28;20028;-76
2023/04/26 07:21:25;;;;;;;9.38;6.15;;;14.60;64.00;;;;;;5053553;28;20025;-75
2023/04/26 07:23:55;;;;;;;11.77;5.55;;;14.60;63.70;;;;;;5058359;28;20036;-75
2023/04/26 07:26:25;;;;;;;11.13;6.18;;;14.60;61.70;;;;;;5073111;28;20069;-75
2023/04/26 07:28:52;;;;;;;7.90;4.82;;;14.60;61.30;;;;;;5073084;28;20024;-75
2023/04/26 07:31:18;;;;;;;9.18;5.28;;;14.60;62.00;;;;;;5071472;28;20025;-75
2023/04/26 07:33:44;;;;;;;9.70;5.15;;;14.50;60.90;;;;;;5073218;28;20078;-75
2023/04/26 07:36:10;;;;;;;11.77;5.65;;;14.60;61.50;;;;;;5066457;28;20024;-75
2023/04/26 07:38:36;;;;;;;6.65;4.70;;;14.60;60.90;;;;;;5053230;28;20086;-75
2023/04/26 07:41:03;;;;;;;10.20;4.90;;;14.60;60.70;;;;;;5070209;28;20033;-75
2023/04/26 07:44:20;;;;;;;6.57;4.25;;;14.70;61.20;;;;;;5072525;28;20068;-75
2023/04/26 07:46:45;;;;;;;10.07;5.00;;;14.80;60.60;;;;;;5014701;28;20029;-75
2023/04/26 07:49:12;;;;;;;6.07;4.47;;;14.90;60.50;;;;;;5017254;28;20104;-75
2023/04/26 07:51:37;;;;;;;7.15;4.47;;;15.00;61.40;;;;;;5012900;28;20101;-74
2023/04/26 07:54:03;;;;;;;12.45;4.85;;;15.00;60.00;;;;;;5011740;28;20112;-75
2023/04/26 07:56:29;;;;;;;7.03;4.35;;;15.10;59.50;;;;;;5011514;28;20136;-75
2023/04/26 07:58:55;;;;;;;8.32;4.50;;;15.10;58.90;;;;;;5012803;28;20507;-74
2023/04/26 08:01:21;;;;;;;6.72;3.95;;;15.20;58.80;;;;;;5011447;28;20523;-75
2023/04/26 08:03:47;;;;;;;6.88;3.53;;;15.20;57.70;;;;;;5021438;28;20038;-75
2023/04/26 08:06:13;;;;;;;9.00;3.78;;;15.10;57.20;;;;;;5010708;28;20034;-75
2023/04/26 08:08:41;;;;;;;8.15;4.22;;;15.20;57.20;;;;;;5025831;28;20040;-75
2023/04/26 08:11:08;;;;;;;5.18;3.63;;;15.20;57.70;;;;;;5011377;28;20029;-75
2023/04/26 08:13:34;;;;;;;6.30;3.60;;;15.20;56.40;;;;;;5011126;28;20029;-75
2023/04/26 08:16:00;;;;;;;6.13;3.17;;;15.20;55.30;;;;;;5011262;28;20045;-75
2023/04/26 08:18:26;;;;;;;7.60;3.05;;;15.30;55.30;;;;;;5011245;28;20077;-76
2023/04/26 08:20:54;;;;;;;7.22;3.28;;;15.40;55.90;;;;;;5022247;28;20043;-75
2023/04/26 08:23:21;;;;;;;6.30;3.20;;;15.50;55.50;;;;;;5069310;28;20036;-75
2023/04/26 08:25:48;;;;;;;10.68;3.38;;;15.50;54.40;;;;;;5072315;28;20020;-75
2023/04/26 08:28:14;;;;;;;7.88;3.22;;;15.60;52.40;;;;;;5072791;28;20021;-75
2023/04/26 08:30:41;;;;;;;7.25;3.58;;;15.70;52.90;;;;;;5072843;28;20071;-75
2023/04/26 08:33:08;;;;;;;4.50;2.88;;;15.80;52.00;;;;;;5072790;28;20066;-75
2023/04/26 08:35:34;;;;;;;10.07;2.97;;;15.80;53.00;;;;;;5072078;28;20032;-74
2023/04/26 08:38:00;;;;;;;8.20;3.03;;;15.90;52.10;;;;;;5069416;28;20025;-75
2023/04/26 08:40:26;;;;;;;10.32;3.38;;;16.00;53.80;;;;;;5055212;28;20432;-75
2023/04/26 08:42:52;;;;;;;4.03;2.70;;;16.00;52.70;;;;;;5056355;28;20021;-75
2023/04/26 08:45:20;;;;;;;6.25;2.97;;;16.10;52.90;;;;;;5058493;28;20071;-75
2023/04/26 08:47:50;;;;;;;6.53;3.17;;;16.00;50.60;;;;;;5080320;28;20021;-75
2023/04/26 08:50:22;;;;;;;5.05;2.90;;;16.00;50.00;;;;;;5056001;28;20025;-74
2023/04/26 08:52:51;;;;;;;8.32;2.80;;;15.90;50.10;;;;;;5056220;28;20018;-75
2023/04/26 08:55:21;;;;;;;7.25;2.70;;;16.00;50.70;;;;;;5079469;28;20055;-75
2023/04/26 08:57:49;;;;;;;12.40;3.38;;;16.00;51.20;;;;;;5062952;28;20380;-75
2023/04/26 09:00:17;;;;;;;11.50;3.08;;;16.10;48.80;;;;;;5074800;28;20028;-75
2023/04/26 09:02:50;;;;;;;6.50;2.70;;;16.20;49.00;;;;;;5074433;28;20103;-74
2023/04/26 09:05:16;;;;;;;8.75;3.53;;;16.20;48.50;;;;;;5073924;28;20070;-74
2023/04/26 09:07:46;;;;;;;9.40;2.83;;;16.20;46.90;;;;;;5074580;28;20470;-75
2023/04/26 09:10:16;;;;;;;8.30;3.08;;;16.10;47.60;;;;;;5073992;28;20028;-75
2023/04/26 09:12:42;;;;;;;6.55;2.97;;;16.10;47.60;;;;;;5075246;28;20031;-75
2023/04/26 09:15:09;;;;;;;7.28;2.78;;;16.10;47.90;;;;;;5075155;28;20029;-75
2023/04/26 09:17:40;;;;;;;4.72;2.25;;;16.00;46.00;;;;;;5075643;28;20024;-75
2023/04/26 09:20:20;;;;;;;5.85;2.83;;;15.90;46.50;;;;;;5074604;28;20032;-75
2023/04/26 09:22:46;;;;;;;7.00;2.42;;;15.90;47.60;;;;;;5075424;28;20027;-75
2023/04/26 09:25:12;;;;;;;8.88;3.00;;;15.90;47.50;;;;;;5074668;28;20448;-74
2023/04/26 09:27:42;;;;;;;11.43;3.00;;;15.90;47.30;;;;;;5075481;28;20026;-75
2023/04/26 09:30:17;;;;;;;6.47;2.80;;;15.90;45.00;;;;;;5075716;28;20020;-75
2023/04/26 09:32:49;;;;;;;6.03;2.20;;;15.90;45.40;;;;;;5075424;28;20017;-74
2023/04/26 09:35:28;;;;;;;9.77;2.97;;;16.10;46.80;;;;;;5075663;28;20060;-75
2023/04/26 09:37:55;;;;;;;9.82;2.72;;;16.10;43.60;;;;;;5062183;28;20055;-75
2023/04/26 09:40:22;;;;;;;10.27;2.90;;;16.10;44.10;;;;;;5057395;28;20024;-75
2023/04/26 09:43:21;;;;;;;10.50;4.00;;;16.10;44.00;;;;;;5064202;28;20021;-75
2023/04/26 09:45:55;;;;;;;8.68;3.13;;;16.10;44.10;;;;;;5055119;28;20021;-75
2023/04/26 09:48:27;;;;;;;5.35;2.30;;;16.20;46.00;;;;;;5069175;28;20032;-75
2023/04/26 09:50:56;;;;;;;7.60;2.72;;;16.30;45.30;;;;;;5059389;28;20028;-75
2023/04/26 09:53:45;;;;;;;5.85;3.00;;;16.40;46.30;;;;;;5063195;28;20062;-76
2023/04/26 09:56:17;;;;;;;6.47;3.05;;;16.60;46.30;;;;;;5075657;28;20033;-75
2023/04/26 09:58:46;;;;;;;5.07;2.72;;;16.80;46.00;;;;;;5063929;28;20025;-76
2023/04/26 10:01:16;;;;;;;6.00;2.78;;;17.00;46.60;;;;;;5076121;28;20020;-76
2023/04/26 10:03:43;;;;;;;6.10;2.90;;;17.10;45.60;;;;;;5070315;28;20028;-75
2023/04/26 10:06:09;;;;;;;3.78;2.22;;;17.30;42.60;;;;;;5074568;28;20052;-76
2023/04/26 10:08:35;;;;;;;8.35;2.78;;;17.30;43.40;;;;;;5084230;28;20027;-75
2023/04/26 10:11:03;;;;;;;11.73;3.65;;;17.40;43.10;;;;;;5095039;28;20024;-76
2023/04/26 10:13:33;;;;;;;8.10;2.88;;;17.40;43.50;;;;;;5094897;28;20123;-76
2023/04/26 10:16:03;;;;;;;5.97;2.72;;;17.50;41.20;;;;;;5072795;28;20021;-75
2023/04/26 10:18:30;;;;;;;7.95;2.80;;;17.50;43.30;;;;;;5054973;28;20025;-76
2023/04/26 10:21:05;;;;;;;5.45;2.15;;;17.60;43.70;;;;;;5053430;28;20033;-75
2023/04/26 10:23:32;;;;;;;7.82;2.28;;;17.70;42.80;;;;;;5070457;28;20068;-75
2023/04/26 10:25:58;;;;;;;5.20;2.20;;;17.80;43.50;;;;;;5074414;28;20024;-76
2023/04/26 10:28:54;;;;;;;5.18;1.98;;;17.80;43.20;;;;;;5071467;28;20032;-76
2023/04/26 10:31:19;;;;;;;6.70;2.30;;;17.80;43.50;;;;;;5057320;28;20095;-75
2023/04/26 10:34:20;;;;;;;13.73;3.05;;;17.90;42.30;;;;;;5071402;28;20394;-76
2023/04/26 10:37:15;;;;;;;9.60;2.47;;;17.90;41.90;;;;;;5066644;28;20381;-75
2023/04/26 10:39:43;;;;;;;9.40;2.55;;;18.10;42.30;;;;;;5064338;28;20021;-75
2023/04/26 10:42:22;;;;;;;6.22;2.40;;;18.10;41.10;;;;;;5064594;28;20078;-76
2023/04/26 10:44:49;;;;;;;7.25;3.13;;;18.10;40.60;;;;;;5059737;28;20383;-75
2023/04/26 10:47:37;;;;;;;8.45;2.88;;;18.10;39.50;;;;;;5062938;28;20439;-76
2023/04/26 10:50:07;;;;;;;10.55;3.80;;;18.00;40.50;;;;;;5054190;28;20024;-75
2023/04/26 10:52:58;;;;;;;6.15;2.88;;;18.00;41.00;;;;;;5064873;28;20377;-76
2023/04/26 10:55:40;;;;;;;13.38;3.55;;;18.00;40.70;;;;;;5073407;28;20032;-76
2023/04/26 10:58:33;;;;;;;6.25;2.72;;;17.90;39.40;;;;;;5060402;28;20402;-76
2023/04/26 11:01:16;;;;;;;5.30;2.28;;;17.90;41.50;;;;;;5061523;28;20037;-75
2023/04/26 11:04:03;;;;;;;4.80;2.40;;;18.00;41.40;;;;;;5062293;28;20490;-77
2023/04/26 11:06:52;;;;;;;4.35;2.50;;;18.10;41.70;;;;;;5071752;28;20052;-76
2023/04/26 11:09:32;;;;;;;5.82;2.55;;;18.00;41.60;;;;;;5071430;28;20017;-75
2023/04/26 11:11:58;;;;;;;5.43;2.60;;;18.10;41.60;;;;;;5069915;28;20016;-76
2023/04/26 11:14:25;;;;;;;5.38;2.42;;;18.10;42.00;;;;;;5060337;28;20032;-79
2023/04/26 11:16:51;;;;;;;6.40;2.78;;;18.10;41.20;;;;;;5072237;28;20048;-77
2023/04/26 11:19:17;;;;;;;8.75;3.15;;;18.10;41.30;;;;;;5055329;28;20488;-77
2023/04/26 11:21:43;;;;;;;7.65;2.67;;;18.10;39.80;;;;;;5052086;28;20079;-77
2023/04/26 11:24:08;;;;;;;5.57;2.35;;;18.10;39.60;;;;;;5054138;28;20037;-77
2023/04/26 11:26:35;;;;;;;3.97;2.35;;;18.20;39.70;;;;;;5055443;28;20485;-77
2023/04/26 11:29:02;;;;;;;5.35;2.30;;;18.30;39.90;;;;;;5069248;28;20024;-77
2023/04/26 11:31:29;;;;;;;5.95;2.25;;;18.20;38.20;;;;;;5070654;28;20507;-77
2023/04/26 11:34:03;;;;;;;6.75;2.47;;;18.20;37.50;;;;;;5072177;28;20100;-77
2023/04/26 11:36:28;;;;;;;7.13;2.30;;;18.10;38.50;;;;;;5071960;28;20020;-77
2023/04/26 11:38:54;;;;;;;5.03;2.65;;;18.10;38.80;;;;;;5073205;28;20112;-77
2023/04/26 11:41:22;;;;;;;7.13;2.28;;;18.10;39.70;;;;;;5073278;28;20496;-77
2023/04/26 11:43:48;;;;;;;6.38;2.47;;;18.00;38.60;;;;;;5073109;28;20053;-76
2023/04/26 11:46:15;;;;;;;8.27;2.38;;;18.00;38.20;;;;;;5073122;28;20464;-77
2023/04/26 11:48:41;;;;;;;7.93;2.72;;;18.00;38.00;;;;;;5072171;28;20032;-77
2023/04/26 11:51:08;;;;;;;10.32;2.88;;;18.00;37.30;;;;;;5072864;28;20055;-77
2023/04/26 11:53:37;;;;;;;4.13;2.33;;;17.90;37.70;;;;;;5073195;28;20020;-76
2023/04/26 11:56:14;;;;;;;4.60;2.53;;;17.90;37.80;;;;;;5071308;28;20478;-77
2023/04/26 11:58:46;;;;;;;15.40;3.28;;;17.90;37.40;;;;;;5072851;28;20025;-77
2023/04/26 12:01:22;;;;;;;8.77;2.50;;;17.80;38.10;;;;;;5071929;28;20044;-75
2023/04/26 12:03:50;;;;;;;8.45;2.60;;;17.70;37.90;;;;;;5071500;28;20025;-76
2023/04/26 12:06:16;;;;;;;7.45;2.78;;;17.70;39.70;;;;;;5072451;28;20061;-76
2023/04/26 12:08:51;;;;;;;7.78;3.10;;;17.70;40.60;;;;;;5072756;28;20458;-76
2023/04/26 12:11:18;;;;;;;7.78;2.83;;;17.70;39.10;;;;;;5072935;28;20021;-76
2023/04/26 12:13:45;;;;;;;7.00;2.78;;;17.60;39.00;;;;;;5073183;28;20041;-76
2023/04/26 12:16:13;;;;;;;8.32;2.45;;;17.60;39.50;;;;;;5074795;28;20043;-76
2023/04/26 12:18:39;;;;;;;11.50;2.75;;;17.60;40.10;;;;;;5074821;28;20016;-76
2023/04/26 12:21:05;;;;;;;4.70;2.42;;;17.50;39.30;;;;;;5076875;28;20506;-76
2023/04/26 12:23:39;;;;;;;6.70;2.20;;;17.50;40.30;;;;;;5075384;28;20047;-76
2023/04/26 12:26:05;;;;;;;9.20;2.53;;;17.50;39.00;;;;;;5075101;28;20036;-76
2023/04/26 12:28:31;;;;;;;7.28;2.60;;;17.50;38.80;;;;;;5076333;28;20036;-76
2023/04/26 12:30:57;;;;;;;4.15;1.80;;;17.50;39.50;;;;;;5076554;28;20021;-76
2023/04/26 12:33:24;;;;;;;5.93;2.40;;;17.60;39.30;;;;;;5074308;28;20039;-76
2023/04/26 12:35:50;;;;;;;6.43;2.60;;;17.70;38.20;;;;;;5076217;28;20025;-76
2023/04/26 12:38:16;;;;;;;3.90;2.20;;;17.80;38.30;;;;;;5075190;28;20496;-76
2023/04/26 12:40:42;;;;;;;12.80;2.83;;;18.00;39.50;;;;;;5075063;28;20024;-77
2023/04/26 12:43:08;;;;;;;6.05;2.47;;;17.90;36.20;;;;;;5076183;28;20029;-79
2023/04/26 12:45:34;;;;;;;7.70;2.42;;;17.90;36.00;;;;;;5074270;28;20031;-78
2023/04/26 12:48:00;;;;;;;6.10;2.38;;;17.90;35.00;;;;;;5071158;28;20474;-79
2023/04/26 12:50:26;;;;;;;13.85;3.47;;;17.90;36.10;;;;;;5060185;28;20017;-78